createdAt,value
2018-04-07T00:01:17.501Z,64.41
2018-04-07T00:03:45.128Z,64.39
2018-04-07T00:06:12.752Z,64.35
2018-04-07T00:08:40.353Z,64.61
2018-04-07T00:11:08.013Z,64.66
2018-04-07T00:13:35.672Z,64.65
2018-04-07T00:16:03.334Z,64.62
2018-04-07T00:18:31.001Z,64.55
2018-04-07T00:20:58.632Z,64.62
2018-04-07T00:23:26.244Z,64.52
2018-04-07T00:25:53.877Z,64.71
2018-04-07T00:28:21.490Z,64.67
2018-04-07T00:30:49.120Z,64.51
2018-04-07T00:33:16.733Z,64.39
2018-04-07T00:35:44.431Z,64.38
2018-04-07T00:38:12.097Z,64.17
2018-04-07T00:40:39.773Z,64.20
2018-04-07T00:43:07.385Z,64.16
2018-04-07T00:45:34.993Z,64.03
2018-04-07T00:48:03.391Z,63.90
2018-04-07T00:50:31.004Z,63.78
2018-04-07T00:52:58.639Z,63.63
2018-04-07T00:55:26.360Z,63.49
2018-04-07T00:57:53.984Z,63.41
2018-04-07T01:00:21.592Z,63.31
2018-04-07T01:02:49.228Z,63.18
2018-04-07T01:05:16.836Z,63.03
2018-04-07T01:07:44.473Z,62.97
2018-04-07T01:10:12.081Z,62.87
2018-04-07T01:12:39.717Z,62.85
2018-04-07T01:15:07.327Z,62.80
2018-04-07T01:17:34.969Z,62.79
2018-04-07T01:20:02.641Z,62.80
2018-04-07T01:22:30.279Z,62.79
2018-04-07T01:24:57.992Z,62.69
2018-04-07T01:27:25.856Z,62.66
2018-04-07T01:29:53.469Z,62.64
2018-04-07T01:32:21.141Z,62.50
2018-04-07T01:34:48.848Z,62.51
2018-04-07T01:37:16.484Z,62.55
2018-04-07T01:39:44.096Z,62.52
2018-04-07T01:42:11.735Z,62.54
2018-04-07T01:44:39.393Z,62.60
2018-04-07T01:47:07.017Z,62.68
2018-04-07T01:49:34.631Z,62.63
2018-04-07T01:52:02.273Z,62.63
2018-04-07T01:54:29.953Z,62.67
2018-04-07T01:56:57.555Z,62.66
2018-04-07T01:59:25.216Z,62.83
2018-04-07T02:01:52.936Z,62.83
2018-04-07T02:04:20.604Z,62.95
2018-04-07T02:06:48.203Z,63.01
2018-04-07T02:09:15.848Z,62.94
2018-04-07T02:11:43.452Z,63.01
2018-04-07T02:14:11.149Z,63.02
2018-04-07T02:16:38.752Z,63.06
2018-04-07T02:19:06.394Z,63.19
2018-04-07T02:21:34.001Z,63.24
2018-04-07T02:24:01.628Z,63.31
2018-04-07T02:26:29.239Z,63.37
2018-04-07T02:28:56.868Z,63.46
2018-04-07T02:31:24.475Z,63.55
2018-04-07T02:33:52.120Z,63.58
2018-04-07T02:36:19.808Z,63.57
2018-04-07T02:38:47.464Z,63.50
2018-04-07T02:41:15.124Z,63.59
2018-04-07T02:43:42.762Z,63.59
2018-04-07T02:46:10.374Z,63.63
2018-04-07T02:48:38.002Z,63.59
2018-04-07T02:51:05.625Z,63.66
2018-04-07T02:53:33.336Z,63.67
2018-04-07T02:56:00.946Z,63.74
2018-04-07T02:58:28.670Z,63.65
2018-04-07T03:00:56.285Z,63.57
2018-04-07T03:03:24.012Z,63.51
2018-04-07T03:05:51.656Z,63.43
2018-04-07T03:08:19.292Z,63.44
2018-04-07T03:10:46.908Z,63.41
2018-04-07T03:13:14.513Z,63.36
2018-04-07T03:15:42.204Z,63.26
2018-04-07T03:18:09.964Z,63.19
2018-04-07T03:20:37.601Z,63.17
2018-04-07T03:23:05.294Z,63.07
2018-04-07T03:25:32.956Z,63.13
2018-04-07T03:28:00.620Z,63.20
2018-04-07T03:30:28.278Z,63.21
2018-04-07T03:32:55.949Z,63.26
2018-04-07T03:35:23.616Z,63.29
2018-04-07T03:37:51.236Z,63.35
2018-04-07T03:40:18.870Z,63.45
2018-04-07T03:42:46.471Z,63.40
2018-04-07T03:45:14.101Z,63.42
2018-04-07T03:47:41.814Z,63.31
2018-04-07T03:50:09.439Z,63.26
2018-04-07T03:52:37.049Z,63.21
2018-04-07T03:55:04.681Z,63.13
2018-04-07T03:57:32.293Z,62.96
2018-04-07T03:59:59.952Z,62.78
2018-04-07T04:02:27.557Z,62.65
2018-04-07T04:04:55.184Z,62.55
2018-04-07T04:07:22.786Z,62.33
2018-04-07T04:09:50.475Z,62.17
2018-04-07T04:12:18.087Z,61.94
2018-04-07T04:14:45.720Z,61.61
2018-04-07T04:17:13.338Z,61.37
2018-04-07T04:19:40.963Z,61.15
2018-04-07T04:22:08.568Z,60.85
2018-04-07T04:24:36.200Z,60.46
2018-04-07T04:27:03.832Z,60.30
2018-04-07T04:29:31.440Z,60.04
2018-04-07T04:31:59.089Z,59.86
2018-04-07T04:34:26.698Z,59.47
2018-04-07T04:36:54.329Z,59.16
2018-04-07T04:39:21.932Z,59.07
2018-04-07T04:41:49.562Z,58.95
2018-04-07T04:44:17.172Z,58.64
2018-04-07T04:46:44.912Z,58.44
2018-04-07T04:49:12.544Z,58.27
2018-04-07T04:51:40.181Z,58.10
2018-04-07T04:54:07.789Z,58.11
2018-04-07T04:56:35.416Z,57.91
2018-04-07T04:59:03.117Z,57.87
2018-04-07T05:01:30.748Z,57.55
2018-04-07T05:03:58.357Z,57.51
2018-04-07T05:06:25.979Z,57.55
2018-04-07T05:08:53.592Z,57.27
2018-04-07T05:11:21.225Z,57.20
2018-04-07T05:13:48.832Z,57.07
2018-04-07T05:16:16.466Z,57.20
2018-04-07T05:18:44.111Z,57.03
2018-04-07T05:21:11.741Z,56.96
2018-04-07T05:23:39.433Z,56.76
2018-04-07T05:26:07.067Z,56.66
2018-04-07T05:28:34.673Z,56.80
2018-04-07T05:31:02.303Z,56.66
2018-04-07T05:33:29.916Z,56.65
2018-04-07T05:35:57.649Z,56.79
2018-04-07T05:38:25.257Z,56.81
2018-04-07T05:40:52.877Z,56.72
2018-04-07T05:43:20.527Z,56.51
2018-04-07T05:45:48.154Z,56.55
2018-04-07T05:48:15.872Z,56.59
2018-04-07T05:50:43.524Z,56.36
2018-04-07T05:53:11.163Z,56.22
2018-04-07T05:55:38.769Z,56.26
2018-04-07T05:58:06.393Z,55.87
2018-04-07T06:00:33.999Z,55.55
2018-04-07T06:03:01.631Z,55.28
2018-04-07T06:05:29.241Z,54.89
2018-04-07T06:07:56.872Z,54.51
2018-04-07T06:10:24.481Z,54.34
2018-04-07T06:12:52.107Z,54.26
2018-04-07T06:15:19.720Z,54.03
2018-04-07T06:17:47.395Z,53.91
2018-04-07T06:20:14.996Z,53.74
2018-04-07T06:22:42.619Z,53.49
2018-04-07T06:25:10.237Z,52.96
2018-04-07T06:27:37.948Z,52.66
2018-04-07T06:30:05.578Z,52.36
2018-04-07T06:32:33.204Z,51.88
2018-04-07T06:35:00.860Z,51.54
2018-04-07T06:37:28.605Z,51.85
2018-04-07T06:39:56.269Z,51.43
2018-04-07T06:42:23.909Z,51.23
2018-04-07T06:44:51.595Z,50.95
2018-04-07T06:47:19.277Z,50.99
2018-04-07T06:49:46.949Z,50.59
2018-04-07T06:52:14.585Z,50.63
2018-04-07T06:54:42.225Z,50.25
2018-04-07T06:57:09.843Z,49.96
2018-04-07T06:59:37.467Z,49.53
2018-04-07T07:02:05.128Z,49.46
2018-04-07T07:04:32.752Z,49.23
2018-04-07T07:07:00.377Z,49.26
2018-04-07T07:09:28.012Z,49.05
2018-04-07T07:11:55.628Z,48.91
2018-04-07T07:14:23.272Z,48.66
2018-04-07T07:16:50.952Z,48.64
2018-04-07T07:19:18.663Z,48.07
2018-04-07T07:21:46.384Z,47.75
2018-04-07T07:24:14.031Z,47.05
2018-04-07T07:26:41.663Z,47.08
2018-04-07T07:29:09.302Z,46.86
2018-04-07T07:31:36.981Z,46.64
2018-04-07T07:34:04.644Z,46.32
2018-04-07T07:36:32.306Z,46.36
2018-04-07T07:38:59.950Z,45.66
2018-04-07T07:41:27.628Z,45.27
2018-04-07T07:43:55.293Z,45.07
2018-04-07T07:46:22.905Z,44.51
2018-04-07T07:48:50.547Z,44.60
2018-04-07T07:51:18.156Z,43.98
2018-04-07T07:53:45.793Z,44.03
2018-04-07T07:56:13.404Z,43.71
2018-04-07T07:58:41.074Z,43.15
2018-04-07T08:01:08.729Z,42.52
2018-04-07T08:03:36.352Z,42.33
2018-04-07T08:06:03.984Z,42.24
2018-04-07T08:08:31.597Z,42.10
2018-04-07T08:10:59.245Z,41.00
2018-04-07T08:13:26.860Z,41.29
2018-04-07T08:15:54.592Z,40.42
2018-04-07T08:18:22.256Z,40.32
2018-04-07T08:20:50.003Z,40.41
2018-04-07T08:23:17.593Z,39.72
2018-04-07T08:25:45.237Z,39.46
2018-04-07T08:28:12.864Z,39.55
2018-04-07T08:30:40.581Z,39.42
2018-04-07T08:33:08.192Z,39.48
2018-04-07T08:35:35.827Z,39.43
2018-04-07T08:38:03.477Z,39.39
2018-04-07T08:40:31.117Z,38.50
2018-04-07T08:42:58.728Z,37.84
2018-04-07T08:45:26.438Z,37.80
2018-04-07T08:47:53.997Z,37.07
2018-04-07T08:50:21.624Z,37.05
2018-04-07T08:52:49.239Z,37.22
2018-04-07T08:55:16.904Z,37.08
2018-04-07T08:57:44.517Z,36.78
2018-04-07T09:00:12.219Z,36.63
2018-04-07T09:02:39.987Z,36.86
2018-04-07T09:05:07.645Z,36.12
2018-04-07T09:07:35.312Z,36.12
2018-04-07T09:10:02.953Z,35.79
2018-04-07T09:12:30.642Z,35.68
2018-04-07T09:14:58.305Z,35.67
2018-04-07T09:17:25.955Z,35.51
2018-04-07T09:19:53.619Z,35.85
2018-04-07T09:22:21.243Z,35.67
2018-04-07T09:24:48.877Z,35.41
2018-04-07T09:27:16.482Z,34.63
2018-04-07T09:29:44.101Z,34.50
2018-04-07T09:32:11.731Z,34.57
2018-04-07T09:34:39.391Z,34.15
2018-04-07T09:37:07.023Z,34.09
2018-04-07T09:39:34.640Z,33.93
2018-04-07T09:42:02.301Z,33.46
2018-04-07T09:44:29.933Z,33.40
2018-04-07T09:46:57.612Z,33.07
2018-04-07T09:49:25.272Z,33.34
2018-04-07T09:51:52.916Z,33.52
2018-04-07T09:54:20.528Z,34.23
2018-04-07T09:56:48.256Z,34.37
2018-04-07T09:59:15.869Z,34.31
2018-04-07T10:01:43.503Z,34.46
2018-04-07T10:04:11.117Z,34.71
2018-04-07T10:06:38.809Z,34.23
2018-04-07T10:09:06.412Z,34.53
2018-04-07T10:11:34.052Z,33.87
2018-04-07T10:14:01.696Z,33.75
2018-04-07T10:16:29.332Z,33.95
2018-04-07T10:18:57.041Z,34.34
2018-04-07T10:21:24.996Z,34.42
2018-04-07T10:23:52.656Z,33.73
2018-04-07T10:26:20.293Z,32.89
2018-04-07T10:28:47.910Z,32.08
2018-04-07T10:31:15.550Z,31.32
2018-04-07T10:33:43.161Z,31.30
2018-04-07T10:36:10.787Z,31.45
2018-04-07T10:38:38.396Z,31.62
2018-04-07T10:41:06.024Z,31.65
2018-04-07T10:43:33.753Z,31.44
2018-04-07T10:46:01.392Z,31.17
2018-04-07T10:48:29.005Z,30.97
2018-04-07T10:50:56.672Z,30.76
2018-04-07T10:53:24.288Z,30.65
2018-04-07T10:55:51.961Z,30.70
2018-04-07T10:58:19.616Z,30.83
2018-04-07T11:00:47.258Z,31.36
2018-04-07T11:03:14.884Z,31.22
2018-04-07T11:05:42.503Z,31.20
2018-04-07T11:08:10.183Z,31.41
2018-04-07T11:10:37.804Z,31.61
2018-04-07T11:13:05.502Z,31.55
2018-04-07T11:15:33.160Z,31.23
2018-04-07T11:18:00.796Z,30.28
2018-04-07T11:20:28.408Z,30.63
2018-04-07T11:22:56.044Z,30.70
2018-04-07T11:25:23.662Z,31.03
2018-04-07T11:27:51.304Z,30.56
2018-04-07T11:30:18.932Z,30.90
2018-04-07T11:32:46.602Z,30.95
2018-04-07T11:35:14.270Z,30.51
2018-04-07T11:37:41.895Z,30.27
2018-04-07T11:40:09.510Z,30.12
2018-04-07T11:42:37.245Z,30.32
2018-04-07T11:45:04.887Z,30.17
2018-04-07T11:47:32.521Z,29.86
2018-04-07T11:50:00.136Z,29.31
2018-04-07T11:52:27.816Z,28.86
2018-04-07T11:54:55.431Z,28.81
2018-04-07T11:57:23.112Z,28.85
2018-04-07T11:59:50.728Z,28.71
2018-04-07T12:02:18.567Z,28.74
2018-04-07T12:04:46.188Z,28.90
2018-04-07T12:07:13.833Z,29.68
2018-04-07T12:09:41.446Z,29.99
2018-04-07T12:12:09.092Z,29.62
2018-04-07T12:14:36.751Z,29.71
2018-04-07T12:17:04.379Z,29.44
2018-04-07T12:19:32.080Z,29.33
2018-04-07T12:21:59.726Z,29.55
2018-04-07T12:24:27.399Z,29.10
2018-04-07T12:26:55.032Z,28.88
2018-04-07T12:29:22.643Z,28.33
2018-04-07T12:31:50.283Z,28.66
2018-04-07T12:34:17.956Z,28.44
2018-04-07T12:36:45.585Z,28.90
2018-04-07T12:39:13.289Z,29.05
2018-04-07T12:41:41.323Z,28.65
2018-04-07T12:44:08.973Z,28.44
2018-04-07T12:46:36.615Z,28.65
2018-04-07T12:49:04.232Z,28.43
2018-04-07T12:51:31.853Z,28.43
2018-04-07T12:53:59.488Z,28.86
2018-04-07T12:56:27.104Z,29.06
2018-04-07T12:58:54.746Z,28.41
2018-04-07T13:01:23.149Z,28.67
2018-04-07T13:03:50.814Z,28.54
2018-04-07T13:06:18.429Z,28.82
2018-04-07T13:08:46.156Z,29.11
2018-04-07T13:11:13.796Z,28.90
2018-04-07T13:13:41.484Z,28.32
2018-04-07T13:16:09.145Z,28.12
2018-04-07T13:18:36.786Z,27.87
2018-04-07T13:21:04.402Z,28.02
2018-04-07T13:23:32.072Z,28.42
2018-04-07T13:25:59.694Z,28.07
2018-04-07T13:28:27.350Z,28.29
2018-04-07T13:30:54.959Z,28.04
2018-04-07T13:33:22.592Z,27.82
2018-04-07T13:35:50.234Z,28.10
2018-04-07T13:38:17.903Z,28.18
2018-04-07T13:40:45.521Z,27.55
2018-04-07T13:43:13.222Z,27.63
2018-04-07T13:45:40.838Z,27.48
2018-04-07T13:48:08.488Z,27.07
2018-04-07T13:50:36.092Z,27.10
2018-04-07T13:53:03.737Z,27.57
2018-04-07T13:55:31.442Z,27.64
2018-04-07T13:57:59.125Z,27.74
2018-04-07T14:00:27.274Z,28.22
2018-04-07T14:02:54.936Z,28.11
2018-04-07T14:05:22.561Z,28.28
2018-04-07T14:07:50.269Z,28.71
2018-04-07T14:10:17.888Z,28.12
2018-04-07T14:14:48.932Z,27.37
2018-04-07T14:17:16.560Z,27.87
2018-04-07T14:19:44.200Z,28.14
2018-04-07T14:22:11.831Z,28.18
2018-04-07T14:24:39.469Z,28.25
2018-04-07T14:27:07.092Z,27.98
2018-04-07T14:29:34.783Z,27.92
2018-04-07T14:32:02.438Z,27.77
2018-04-07T14:35:26.332Z,28.13
2018-04-07T14:37:53.996Z,28.31
2018-04-07T14:40:21.665Z,27.78
2018-04-07T14:42:49.279Z,27.61
2018-04-07T14:45:16.981Z,27.01
2018-04-07T14:47:44.600Z,26.70
2018-04-07T14:50:12.232Z,26.70
2018-04-07T14:52:39.873Z,26.89
2018-04-07T14:55:07.517Z,26.94
2018-04-07T14:57:35.142Z,26.62
2018-04-07T15:00:02.785Z,26.88
2018-04-07T15:02:30.483Z,26.31
2018-04-07T15:04:58.119Z,26.44
2018-04-07T15:07:25.976Z,26.13
2018-04-07T15:09:53.709Z,26.19
2018-04-07T15:12:21.332Z,25.88
2018-04-07T15:14:48.993Z,26.27
2018-04-07T15:17:16.611Z,26.63
2018-04-07T15:19:44.258Z,26.67
2018-04-07T15:22:11.927Z,26.95
2018-04-07T15:24:39.564Z,26.39
2018-04-07T15:27:07.197Z,26.48
2018-04-07T15:29:34.836Z,26.57
2018-04-07T15:32:02.460Z,26.69
2018-04-07T15:34:30.123Z,26.78
2018-04-07T15:36:57.741Z,26.97
2018-04-07T15:39:25.351Z,27.19
2018-04-07T15:41:53.007Z,27.47
2018-04-07T15:44:20.682Z,27.28
2018-04-07T15:46:48.321Z,27.59
2018-04-07T15:49:15.937Z,27.41
2018-04-07T15:51:43.572Z,27.52
2018-04-07T15:54:11.189Z,27.50
2018-04-07T15:56:38.962Z,27.62
2018-04-07T15:59:06.537Z,27.84
2018-04-07T16:01:34.180Z,27.87
2018-04-07T16:04:02.692Z,27.63
2018-04-07T16:06:30.324Z,27.83
2018-04-07T16:08:57.942Z,27.83
2018-04-07T16:11:25.589Z,27.48
2018-04-07T16:13:53.319Z,27.52
2018-04-07T16:16:20.940Z,27.83
2018-04-07T16:18:48.556Z,28.19
2018-04-07T16:21:16.192Z,28.39
2018-04-07T16:23:43.819Z,28.58
2018-04-07T16:26:11.460Z,28.68
2018-04-07T16:28:39.126Z,27.94
2018-04-07T16:31:06.776Z,28.29
2018-04-07T16:33:34.397Z,28.66
2018-04-07T16:36:02.107Z,28.42
2018-04-07T16:38:29.773Z,28.82
2018-04-07T16:40:57.412Z,28.64
2018-04-07T16:43:25.095Z,28.64
2018-04-07T16:45:52.732Z,28.65
2018-04-07T16:48:20.413Z,28.68
2018-04-07T16:50:48.074Z,28.39
2018-04-07T16:53:15.739Z,28.37
2018-04-07T16:55:43.717Z,28.53
2018-04-07T16:58:11.389Z,28.65
2018-04-07T17:00:39.004Z,28.73
2018-04-07T17:03:06.644Z,29.03
2018-04-07T17:05:34.272Z,29.02
2018-04-07T17:08:01.908Z,29.45
2018-04-07T17:10:29.533Z,29.72
2018-04-07T17:12:57.172Z,29.94
2018-04-07T17:15:24.779Z,29.83
2018-04-07T17:17:52.484Z,29.81
2018-04-07T17:20:20.129Z,30.16
2018-04-07T17:22:47.792Z,30.14
2018-04-07T17:25:15.465Z,30.58
2018-04-07T17:27:43.128Z,30.66
2018-04-07T17:30:10.788Z,31.11
2018-04-07T17:32:38.433Z,31.48
2018-04-07T17:35:06.108Z,31.76
2018-04-07T17:37:33.740Z,32.05
2018-04-07T17:40:01.358Z,32.72
2018-04-07T17:42:29.001Z,32.83
2018-04-07T17:44:56.661Z,32.79
2018-04-07T17:47:24.327Z,32.94
2018-04-07T17:49:52.015Z,32.98
2018-04-07T17:52:19.756Z,33.23
2018-04-07T17:54:47.372Z,33.54
2018-04-07T17:57:15.076Z,33.70
2018-04-07T17:59:42.749Z,33.73
2018-04-07T18:02:10.414Z,33.82
2018-04-07T18:04:38.066Z,34.03
2018-04-07T18:07:05.734Z,34.19
2018-04-07T18:09:33.376Z,34.37
2018-04-07T18:12:01.000Z,34.50
2018-04-07T18:14:28.644Z,34.62
2018-04-07T18:16:56.256Z,34.83
2018-04-07T18:19:23.976Z,34.97
2018-04-07T18:21:51.581Z,34.93
2018-04-07T18:24:19.247Z,35.00
2018-04-07T18:26:46.864Z,35.14
2018-04-07T18:29:14.500Z,35.38
2018-04-07T18:31:42.157Z,35.50
2018-04-07T18:34:09.813Z,35.75
2018-04-07T18:36:37.456Z,35.95
2018-04-07T18:39:05.144Z,36.18
2018-04-07T18:41:32.762Z,36.34
2018-04-07T18:44:00.445Z,36.57
2018-04-07T18:46:28.062Z,36.75
2018-04-07T18:48:55.789Z,37.00
2018-04-07T18:51:23.408Z,37.16
2018-04-07T18:53:51.055Z,37.24
2018-04-07T18:56:18.776Z,37.32
2018-04-07T18:58:46.412Z,37.52
2018-04-07T19:01:14.029Z,37.78
2018-04-07T19:03:41.764Z,37.86
2018-04-07T19:06:09.385Z,37.92
2018-04-07T19:08:37.020Z,37.88
2018-04-07T19:11:04.637Z,37.94
2018-04-07T19:13:32.313Z,38.08
2018-04-07T19:15:59.937Z,38.09
2018-04-07T19:18:27.560Z,38.17
2018-04-07T19:20:55.205Z,38.26
2018-04-07T19:23:22.820Z,38.35
2018-04-07T19:25:50.529Z,38.49
2018-04-07T19:28:18.152Z,38.50
2018-04-07T19:30:45.796Z,38.54
2018-04-07T19:33:13.416Z,38.64
2018-04-07T19:35:41.052Z,38.74
2018-04-07T19:38:08.660Z,38.77
2018-04-07T19:40:36.296Z,38.77
2018-04-07T19:43:03.908Z,38.73
2018-04-07T19:45:31.547Z,38.80
2018-04-07T19:47:59.186Z,38.71
2018-04-07T19:50:26.981Z,38.67
2018-04-07T19:52:54.599Z,38.54
2018-04-07T19:55:22.273Z,38.57
2018-04-07T19:57:49.932Z,38.56
2018-04-07T20:00:17.592Z,38.45
2018-04-07T20:02:45.232Z,38.46
2018-04-07T20:05:12.890Z,38.70
2018-04-07T20:07:40.537Z,38.60
2018-04-07T20:10:08.176Z,38.70
2018-04-07T20:12:35.799Z,38.83
2018-04-07T20:15:03.440Z,38.91
2018-04-07T20:17:31.055Z,38.93
2018-04-07T20:19:58.839Z,39.16
2018-04-07T20:22:26.445Z,39.20
2018-04-07T20:24:54.112Z,39.41
2018-04-07T20:27:21.724Z,39.51
2018-04-07T20:29:49.444Z,39.66
2018-04-07T20:32:17.119Z,39.87
2018-04-07T20:34:44.774Z,40.01
2018-04-07T20:37:12.411Z,40.16
2018-04-07T20:39:40.255Z,40.31
2018-04-07T20:42:19.759Z,40.50
2018-04-07T20:44:47.371Z,40.61
2018-04-07T20:47:15.021Z,40.74
2018-04-07T20:49:42.700Z,40.83
2018-04-07T20:52:10.341Z,40.98
2018-04-07T20:54:38.052Z,41.00
2018-04-07T20:57:05.682Z,41.13
2018-04-07T20:59:33.301Z,41.20
2018-04-07T21:02:00.944Z,41.31
2018-04-07T21:04:28.594Z,41.35
2018-04-07T21:06:56.235Z,41.49
2018-04-07T21:09:23.856Z,41.65
2018-04-07T21:11:51.598Z,41.69
2018-04-07T21:14:19.220Z,41.79
2018-04-07T21:16:46.916Z,41.82
2018-04-07T21:19:14.576Z,41.92
2018-04-07T21:21:42.244Z,42.06
2018-04-07T21:24:09.861Z,42.14
2018-04-07T21:26:37.496Z,42.20
2018-04-07T21:29:05.133Z,42.24
2018-04-07T21:31:32.777Z,42.25
2018-04-07T21:34:00.457Z,42.38
2018-04-07T21:36:28.106Z,42.36
2018-04-07T21:38:55.730Z,42.50
2018-04-07T21:41:23.381Z,42.56
2018-04-07T21:43:51.001Z,42.63
2018-04-07T21:46:18.645Z,42.73
2018-04-07T21:48:46.260Z,42.89
2018-04-07T21:51:13.877Z,43.02
2018-04-07T21:53:41.515Z,43.16
2018-04-07T21:56:09.212Z,43.31
2018-04-07T21:58:36.857Z,43.39
2018-04-07T22:01:04.469Z,43.55
2018-04-07T22:03:32.108Z,43.64
2018-04-07T22:05:59.730Z,43.77
2018-04-07T22:08:27.374Z,43.86
2018-04-07T22:10:54.988Z,43.90
2018-04-07T22:13:22.623Z,44.02
2018-04-07T22:15:50.250Z,44.24
2018-04-07T22:18:18.025Z,44.29
2018-04-07T22:20:45.641Z,44.38
2018-04-07T22:23:13.276Z,44.55
2018-04-07T22:25:40.893Z,44.73
2018-04-07T22:28:08.615Z,45.06
2018-04-07T22:30:36.235Z,45.19
2018-04-07T22:33:03.886Z,45.55
2018-04-07T22:35:31.513Z,45.71
2018-04-07T22:37:59.152Z,45.86
2018-04-07T22:40:26.769Z,45.95
2018-04-07T22:42:54.413Z,46.09
2018-04-07T22:45:22.060Z,46.30
2018-04-07T22:47:49.699Z,46.48
2018-04-07T22:50:17.311Z,46.68
2018-04-07T22:52:45.044Z,46.88
2018-04-07T22:55:12.665Z,47.03
2018-04-07T22:57:40.368Z,47.20
2018-04-07T23:00:08.031Z,47.34
2018-04-07T23:02:35.687Z,47.58
2018-04-07T23:05:03.324Z,47.81
2018-04-07T23:07:31.020Z,47.98
2018-04-07T23:09:58.656Z,48.14
2018-04-07T23:12:26.282Z,48.24
2018-04-07T23:14:53.932Z,48.38
2018-04-07T23:17:21.550Z,48.53
2018-04-07T23:19:49.184Z,48.65
2018-04-07T23:22:16.811Z,48.88
2018-04-07T23:24:44.455Z,49.23
2018-04-07T23:27:12.073Z,49.50
2018-04-07T23:29:39.872Z,50.01
2018-04-07T23:32:07.544Z,50.28
2018-04-07T23:34:35.188Z,50.51
2018-04-07T23:37:02.805Z,50.74
2018-04-07T23:39:30.455Z,50.98
2018-04-07T23:41:58.186Z,50.98
2018-04-07T23:44:25.820Z,51.06
2018-04-07T23:46:53.441Z,51.33
2018-04-07T23:49:21.086Z,51.37
2018-04-07T23:51:48.695Z,51.49
2018-04-07T23:54:16.405Z,51.56
2018-04-07T23:56:44.064Z,51.66
2018-04-07T23:59:11.721Z,51.73
